Time;durP1;ratioP1;P1;durP2;ratioP2;P2;SDS_P1;SDS_P2;PMS_P1;PMS_P2;Temp;Humidity;BMP_temperature;BMP_pressure;BME280_temperature;BME280_humidity;BME280_pressure;Samples;Min_cycle;Max_cycle;Signal;HPM_P1;HPM_P2
2023/08/01 00:01:02;;;;;;;;;;;15.70;79.40;;;;;;5088426;28;20355;-76
2023/08/01 00:03:28;;;;;;;;;;;15.70;79.40;;;;;;5087443;28;19930;-76
2023/08/01 00:05:54;;;;;;;;;;;15.70;79.30;;;;;;5087564;28;19912;-76
2023/08/01 00:08:20;;;;;;;;;;;15.70;79.30;;;;;;5087350;28;19951;-76
2023/08/01 00:10:46;;;;;;;;;;;15.70;79.30;;;;;;5088739;28;19943;-76
2023/08/01 00:13:11;;;;;;;;;;;15.70;79.30;;;;;;5088365;28;19908;-77
2023/08/01 00:15:37;;;;;;;;;;;15.70;79.30;;;;;;5088202;28;19912;-78
2023/08/01 00:18:03;;;;;;;;;;;15.70;79.30;;;;;;5088420;28;20318;-77
2023/08/01 00:20:28;;;;;;;;;;;15.70;79.30;;;;;;5088231;28;20018;-77
2023/08/01 00:22:54;;;;;;;;;;;15.70;79.30;;;;;;5088081;28;19950;-78
2023/08/01 00:25:20;;;;;;;;;;;15.70;79.30;;;;;;5086794;28;19912;-77
2023/08/01 00:27:45;;;;;;;;;;;15.70;79.30;;;;;;5088139;28;19915;-78
2023/08/01 00:30:11;;;;;;;;;;;15.70;79.30;;;;;;5088000;28;19916;-78
2023/08/01 00:32:37;;;;;;;;;;;15.70;79.30;;;;;;5088107;28;19919;-77
2023/08/01 00:35:03;;;;;;;;;;;15.70;79.40;;;;;;5087819;28;19912;-77
2023/08/01 00:37:29;;;;;;;;;;;15.70;79.30;;;;;;5088052;28;20395;-77
2023/08/01 00:39:54;;;;;;;;;;;15.70;79.30;;;;;;5087980;28;19916;-78
2023/08/01 00:42:20;;;;;;;;;;;15.70;79.30;;;;;;5087969;28;20373;-78
2023/08/01 00:44:47;;;;;;;;;;;15.70;79.30;;;;;;5086542;28;19989;-77
2023/08/01 00:47:13;;;;;;;;;;;15.70;79.30;;;;;;5087815;28;19908;-78
2023/08/01 00:49:39;;;;;;;;;;;15.70;79.30;;;;;;5087851;28;19924;-78
2023/08/01 00:52:05;;;;;;;;;;;15.60;79.20;;;;;;5087862;28;19919;-78
2023/08/01 00:54:35;;;;;;;;;;;15.60;79.20;;;;;;5086379;28;20291;-78
2023/08/01 00:57:04;;;;;;;;;;;15.60;79.20;;;;;;5086576;28;19908;-78
2023/08/01 00:59:30;;;;;;;;;;;15.60;79.30;;;;;;5087965;28;19974;-78
2023/08/01 01:01:56;;;;;;;;;;;15.60;79.20;;;;;;5087705;28;19956;-77
2023/08/01 01:04:21;;;;;;;;;;;15.60;79.30;;;;;;5092102;28;19916;-78
2023/08/01 01:07:07;;;;;;;;;;;15.60;79.30;;;;;;5091992;28;19912;-78
2023/08/01 01:09:33;;;;;;;;;;;15.60;79.30;;;;;;5091664;28;19931;-79
2023/08/01 01:11:59;;;;;;;;;;;15.70;79.30;;;;;;5090603;28;20375;-79
2023/08/01 01:14:28;;;;;;;;;;;15.70;79.20;;;;;;5091742;28;20279;-79
2023/08/01 01:16:54;;;;;;;;;;;15.70;79.20;;;;;;5091620;28;19999;-78
2023/08/01 01:19:19;;;;;;;;;;;15.60;79.20;;;;;;5091724;28;19996;-78
2023/08/01 01:21:46;;;;;;;;;;;15.60;79.20;;;;;;5090431;28;20376;-78
2023/08/01 01:24:11;;;;;;;;;;;15.60;79.20;;;;;;5091683;28;19913;-78
2023/08/01 01:26:39;;;;;;;;;;;15.60;79.30;;;;;;5091994;28;20303;-74
2023/08/01 01:29:05;;;;;;;;;;;15.50;79.20;;;;;;5090429;28;20317;-77
2023/08/01 01:31:34;;;;;;;;;;;15.50;79.20;;;;;;5073056;28;19939;-77
2023/08/01 01:34:00;;;;;;;;;;;15.50;79.20;;;;;;5091258;28;19964;-76
2023/08/01 01:36:26;;;;;;;;;;;15.50;79.70;;;;;;5089897;28;20003;-77
2023/08/01 01:38:51;;;;;;;;;;;15.40;79.20;;;;;;5091404;28;20010;-76
2023/08/01 01:41:17;;;;;;;;;;;15.40;79.20;;;;;;5091166;28;20380;-76
2023/08/01 01:43:44;;;;;;;;;;;15.40;79.20;;;;;;5090989;28;20433;-76
2023/08/01 01:46:10;;;;;;;;;;;15.30;79.10;;;;;;5090927;28;19914;-76
2023/08/01 01:48:35;;;;;;;;;;;15.20;79.10;;;;;;5091342;28;20323;-77
2023/08/01 01:51:01;;;;;;;;;;;15.10;79.10;;;;;;5089728;28;20440;-76
2023/08/01 01:53:26;;;;;;;;;;;15.00;79.10;;;;;;5091026;28;20259;-76
2023/08/01 01:55:53;;;;;;;;;;;14.90;79.10;;;;;;5090805;28;19912;-76
2023/08/01 01:58:19;;;;;;;;;;;14.80;79.20;;;;;;5090745;28;19961;-76
2023/08/01 02:00:44;;;;;;;;;;;14.80;79.20;;;;;;5090612;28;19912;-76
2023/08/01 02:03:10;;;;;;;;;;;14.80;79.30;;;;;;5089430;28;19935;-76
2023/08/01 02:05:36;;;;;;;;;;;14.70;79.40;;;;;;5072452;28;19912;-76
2023/08/01 02:08:01;;;;;;;;;;;14.70;79.40;;;;;;5091025;28;19910;-76
2023/08/01 02:10:27;;;;;;;;;;;14.70;79.40;;;;;;5090749;28;19978;-76
2023/08/01 02:12:53;;;;;;;;;;;14.70;79.40;;;;;;5089233;28;20307;-77
2023/08/01 02:15:18;;;;;;;;;;;14.80;79.40;;;;;;5089075;28;19942;-76
2023/08/01 02:17:44;;;;;;;;;;;14.90;79.40;;;;;;5089298;28;19956;-77
2023/08/01 02:20:09;;;;;;;;;;;14.90;79.40;;;;;;5090473;28;19958;-76
2023/08/01 02:22:35;;;;;;;;;;;14.90;79.40;;;;;;5089066;28;19996;-76
2023/08/01 02:25:00;;;;;;;;;;;14.90;79.30;;;;;;5088954;28;19959;-76
2023/08/01 02:27:26;;;;;;;;;;;15.00;79.30;;;;;;5090277;28;19922;-76
2023/08/01 02:29:52;;;;;;;;;;;14.90;79.20;;;;;;5090182;28;19946;-76
2023/08/01 02:32:17;;;;;;;;;;;14.90;79.20;;;;;;5090142;28;19957;-76
2023/08/01 02:34:43;;;;;;;;;;;14.90;79.20;;;;;;5089992;28;19920;-76
2023/08/01 02:37:08;;;;;;;;;;;14.80;79.20;;;;;;5090382;28;19967;-76
2023/08/01 02:39:34;;;;;;;;;;;14.80;79.30;;;;;;5089783;28;20368;-78
2023/08/01 02:42:00;;;;;;;;;;;14.80;79.30;;;;;;5090002;28;19908;-78
2023/08/01 02:44:26;;;;;;;;;;;14.70;79.20;;;;;;5090004;28;19919;-78
2023/08/01 02:46:51;;;;;;;;;;;14.60;79.20;;;;;;5090094;28;19973;-77
2023/08/01 02:49:17;;;;;;;;;;;14.60;79.20;;;;;;5090019;28;19938;-78
2023/08/01 02:51:43;;;;;;;;;;;14.60;79.30;;;;;;5088474;28;19923;-78
2023/08/01 02:54:08;;;;;;;;;;;14.50;79.30;;;;;;5088430;28;20269;-78
2023/08/01 02:56:34;;;;;;;;;;;14.50;79.30;;;;;;5089599;28;19984;-78
2023/08/01 02:58:59;;;;;;;;;;;14.50;79.30;;;;;;5089699;28;19951;-78
2023/08/01 03:01:25;;;;;;;;;;;14.40;79.30;;;;;;5089390;28;20007;-78
2023/08/01 03:03:51;;;;;;;;;;;14.40;79.30;;;;;;5089448;28;19924;-78
2023/08/01 03:06:16;;;;;;;;;;;14.40;79.40;;;;;;5089562;28;19913;-78
2023/08/01 03:08:43;;;;;;;;;;;14.40;79.40;;;;;;5089545;28;19927;-78
2023/08/01 03:11:09;;;;;;;;;;;14.40;79.90;;;;;;5089500;28;19916;-78
2023/08/01 03:13:34;;;;;;;;;;;14.30;79.40;;;;;;5089489;28;20436;-78
2023/08/01 03:16:00;;;;;;;;;;;14.30;79.40;;;;;;5087913;28;20379;-78
2023/08/01 03:18:25;;;;;;;;;;;14.30;79.40;;;;;;5089396;28;20292;-78
2023/08/01 03:20:51;;;;;;;;;;;14.30;79.50;;;;;;5088096;28;20425;-78
2023/08/01 03:23:17;;;;;;;;;;;14.20;79.40;;;;;;5089490;28;20034;-78
2023/08/01 03:25:42;;;;;;;;;;;14.20;79.40;;;;;;5087474;28;19923;-78
2023/08/01 03:28:09;;;;;;;;;;;14.20;79.40;;;;;;5087963;28;19963;-78
2023/08/01 03:30:35;;;;;;;;;;;14.20;79.40;;;;;;5089278;28;19924;-77
2023/08/01 03:33:02;;;;;;;;;;;14.20;79.50;;;;;;5089206;28;19912;-77
2023/08/01 03:35:28;;;;;;;;;;;14.20;79.40;;;;;;5087835;28;20379;-78
2023/08/01 03:37:54;;;;;;;;;;;14.20;79.40;;;;;;5089113;28;19908;-77
2023/08/01 03:40:19;;;;;;;;;;;14.20;79.40;;;;;;5087869;28;19919;-78
2023/08/01 03:42:45;;;;;;;;;;;14.20;79.40;;;;;;5088860;28;19916;-79
2023/08/01 03:45:10;;;;;;;;;;;14.20;79.40;;;;;;5087368;28;19943;-78
2023/08/01 03:47:36;;;;;;;;;;;14.10;79.40;;;;;;5089165;28;20019;-78
2023/08/01 03:50:02;;;;;;;;;;;14.20;79.40;;;;;;5088650;28;19918;-77
2023/08/01 03:52:28;;;;;;;;;;;14.20;79.40;;;;;;5088400;28;19912;-78
2023/08/01 03:54:54;;;;;;;;;;;14.20;79.40;;;;;;5088314;28;19912;-78
2023/08/01 03:57:20;;;;;;;;;;;14.20;79.40;;;;;;5088479;28;19915;-78
2023/08/01 03:59:48;;;;;;;;;;;14.20;79.30;;;;;;5086937;28;19916;-78
2023/08/01 04:02:14;;;;;;;;;;;14.20;79.30;;;;;;5088345;28;20010;-78
2023/08/01 04:04:42;;;;;;;;;;;14.20;79.30;;;;;;5086448;28;20350;-78
2023/08/01 04:07:08;;;;;;;;;;;14.20;79.40;;;;;;5088450;28;20387;-77
2023/08/01 04:09:34;;;;;;;;;;;14.20;79.40;;;;;;5088464;28;19912;-78
2023/08/01 04:11:59;;;;;;;;;;;14.10;79.30;;;;;;5088481;28;20360;-78
2023/08/01 04:14:25;;;;;;;;;;;14.10;79.30;;;;;;5087643;28;19912;-78
2023/08/01 04:16:50;;;;;;;;;;;14.10;79.40;;;;;;5087041;28;19916;-77
2023/08/01 04:19:16;;;;;;;;;;;14.10;79.40;;;;;;5088279;28;19913;-78
2023/08/01 04:21:41;;;;;;;;;;;14.10;79.40;;;;;;5087121;28;20016;-77
2023/08/01 04:24:07;;;;;;;;;;;14.10;79.40;;;;;;5086874;28;19981;-77
2023/08/01 04:26:33;;;;;;;;;;;14.10;79.40;;;;;;5087097;28;19942;-78
2023/08/01 04:28:58;;;;;;;;;;;14.20;79.40;;;;;;5088307;28;19927;-78
2023/08/01 04:31:24;;;;;;;;;;;14.20;79.80;;;;;;5088210;28;19912;-78
2023/08/01 04:33:49;;;;;;;;;;;14.20;79.40;;;;;;5088291;28;19916;-77
2023/08/01 04:36:15;;;;;;;;;;;14.20;79.40;;;;;;5086883;28;19916;-78
2023/08/01 04:38:41;;;;;;;;;;;14.20;79.40;;;;;;5086002;28;19974;-78
2023/08/01 04:41:07;;;;;;;;;;;14.20;79.30;;;;;;5088337;28;19912;-78
2023/08/01 04:43:33;;;;;;;;;;;14.20;79.20;;;;;;5087778;28;19916;-78
2023/08/01 04:45:59;;;;;;;;;;;14.10;79.20;;;;;;5087924;28;20002;-79
2023/08/01 04:48:24;;;;;;;;;;;14.20;79.30;;;;;;5086861;28;20338;-78
2023/08/01 04:50:50;;;;;;;;;;;14.10;79.30;;;;;;5087913;28;19912;-78
2023/08/01 04:53:15;;;;;;;;;;;14.10;79.30;;;;;;5086546;28;19912;-78
2023/08/01 04:55:41;;;;;;;;;;;14.10;79.30;;;;;;5087553;28;19912;-78
2023/08/01 04:58:06;;;;;;;;;;;14.10;79.30;;;;;;5087728;28;19966;-78
2023/08/01 05:00:32;;;;;;;;;;;14.10;79.30;;;;;;5086007;28;20411;-78
2023/08/01 05:02:57;;;;;;;;;;;14.10;79.30;;;;;;5087336;28;19924;-78
2023/08/01 05:05:23;;;;;;;;;;;14.10;79.30;;;;;;5087528;28;19927;-78
2023/08/01 05:07:48;;;;;;;;;;;14.10;79.90;;;;;;5087546;28;20326;-78
2023/08/01 05:10:14;;;;;;;;;;;14.10;79.30;;;;;;5087560;28;19912;-78
2023/08/01 05:12:40;;;;;;;;;;;14.10;79.30;;;;;;5088019;28;19912;-78
2023/08/01 05:15:05;;;;;;;;;;;14.10;79.30;;;;;;5087380;28;19912;-77
2023/08/01 05:17:31;;;;;;;;;;;14.10;79.30;;;;;;5086178;28;20300;-77
2023/08/01 05:19:57;;;;;;;;;;;14.20;79.30;;;;;;5089389;28;19912;-74
2023/08/01 05:22:22;;;;;;;;;;;14.20;79.30;;;;;;5087842;28;20008;-75
2023/08/01 05:24:48;;;;;;;;;;;14.20;79.30;;;;;;5087505;28;19915;-74
2023/08/01 05:27:13;;;;;;;;;;;14.20;79.30;;;;;;5087668;28;19958;-74
2023/08/01 05:29:39;;;;;;;;;;;14.30;79.30;;;;;;5087321;28;19959;-75
2023/08/01 05:32:04;;;;;;;;;;;14.30;79.30;;;;;;5085935;28;19912;-74
2023/08/01 05:34:30;;;;;;;;;;;14.30;79.30;;;;;;5087619;28;19940;-74
2023/08/01 05:36:56;;;;;;;;;;;14.30;79.30;;;;;;5086300;28;19965;-74
2023/08/01 05:39:21;;;;;;;;;;;14.40;79.40;;;;;;5087675;28;19959;-74
2023/08/01 05:41:47;;;;;;;;;;;14.40;79.30;;;;;;5087728;28;19923;-74
2023/08/01 05:44:12;;;;;;;;;;;14.40;79.30;;;;;;5087393;28;20395;-74
2023/08/01 05:46:38;;;;;;;;;;;14.50;79.30;;;;;;5088214;28;20014;-74
2023/08/01 05:49:03;;;;;;;;;;;14.50;79.30;;;;;;5089321;28;19916;-75
2023/08/01 05:51:29;;;;;;;;;;;14.50;79.30;;;;;;5090949;28;20375;-74
2023/08/01 05:53:54;;;;;;;;;;;14.50;79.30;;;;;;5090026;28;19916;-74
2023/08/01 05:56:20;;;;;;;;;;;14.60;79.30;;;;;;5091048;28;19908;-75
2023/08/01 05:58:46;;;;;;;;;;;14.70;79.40;;;;;;5090759;28;19908;-73
2023/08/01 06:01:11;;;;;;;;;;;14.80;79.50;;;;;;5090484;28;20371;-74
2023/08/01 06:03:37;;;;;;;;;;;14.90;79.50;;;;;;5089352;28;20388;-74
2023/08/01 06:06:03;;;;;;;;;;;15.00;79.40;;;;;;5089531;28;19922;-74
2023/08/01 06:08:29;;;;;;;;;;;15.00;79.30;;;;;;5090598;28;19919;-72
2023/08/01 06:10:55;;;;;;;;;;;15.00;79.30;;;;;;5089407;28;20294;-74
2023/08/01 06:13:20;;;;;;;;;;;15.10;79.40;;;;;;5090505;28;19908;-74
2023/08/01 06:15:46;;;;;;;;;;;15.40;79.50;;;;;;5089066;28;19947;-74
2023/08/01 06:18:12;;;;;;;;;;;15.70;78.90;;;;;;5089349;28;19914;-74
2023/08/01 06:20:38;;;;;;;;;;;15.80;78.50;;;;;;5090650;28;19957;-75
2023/08/01 06:23:03;;;;;;;;;;;15.80;78.60;;;;;;5090273;28;19916;-74
2023/08/01 06:25:29;;;;;;;;;;;15.70;78.70;;;;;;5090609;28;19962;-74
2023/08/01 06:27:54;;;;;;;;;;;15.80;79.00;;;;;;5090377;28;19919;-74
2023/08/01 06:30:20;;;;;;;;;;;15.90;79.00;;;;;;5090183;28;20546;-74
2023/08/01 06:32:45;;;;;;;;;;;16.00;78.90;;;;;;5088809;28;20360;-74
2023/08/01 06:35:11;;;;;;;;;;;16.10;79.00;;;;;;5089999;28;19916;-74
2023/08/01 06:37:36;;;;;;;;;;;16.70;79.40;;;;;;5090047;28;20003;-75
2023/08/01 06:40:02;;;;;;;;;;;17.90;79.00;;;;;;5088382;28;19919;-75
2023/08/01 06:42:28;;;;;;;;;;;18.70;77.40;;;;;;5089992;28;19912;-74
2023/08/01 06:44:54;;;;;;;;;;;18.70;76.70;;;;;;5088639;28;19920;-74
2023/08/01 06:47:19;;;;;;;;;;;18.50;76.80;;;;;;5088583;28;20142;-74
2023/08/01 06:49:45;;;;;;;;;;;18.40;77.00;;;;;;5089889;28;19912;-74
2023/08/01 06:52:10;;;;;;;;;;;18.20;77.30;;;;;;5089824;28;19948;-74
2023/08/01 06:54:36;;;;;;;;;;;18.00;77.70;;;;;;5088419;28;19924;-75
2023/08/01 06:57:02;;;;;;;;;;;17.90;78.10;;;;;;5088587;28;19912;-75
2023/08/01 06:59:27;;;;;;;;;;;17.80;78.40;;;;;;5088539;28;19912;-78
2023/08/01 07:01:53;;;;;;;;;;;17.80;78.60;;;;;;5086982;28;19920;-78
2023/08/01 07:04:19;;;;;;;;;;;17.80;78.70;;;;;;5089344;28;20664;-77
2023/08/01 07:06:44;;;;;;;;;;;17.80;78.70;;;;;;5087783;28;20398;-77
2023/08/01 07:09:10;;;;;;;;;;;17.80;78.60;;;;;;5089132;28;20010;-76
2023/08/01 07:11:35;;;;;;;;;;;17.90;78.70;;;;;;5088077;28;20010;-76
2023/08/01 07:14:01;;;;;;;;;;;17.90;78.70;;;;;;5089357;28;19908;-77
2023/08/01 07:16:27;;;;;;;;;;;18.00;79.00;;;;;;5089376;28;20014;-77
2023/08/01 07:18:52;;;;;;;;;;;18.20;79.00;;;;;;5089356;28;19916;-78
2023/08/01 07:21:18;;;;;;;;;;;18.50;78.90;;;;;;5090867;28;19950;-77
2023/08/01 07:23:43;;;;;;;;;;;18.90;79.00;;;;;;5089471;28;20334;-78
2023/08/01 07:26:09;;;;;;;;;;;19.30;78.70;;;;;;5089142;28;19956;-79
2023/08/01 07:28:35;;;;;;;;;;;19.70;78.50;;;;;;5087814;28;20003;-78
2023/08/01 07:31:01;;;;;;;;;;;19.90;78.20;;;;;;5089253;28;19914;-78
2023/08/01 07:33:27;;;;;;;;;;;20.50;78.80;;;;;;5088840;28;19933;-79
2023/08/01 07:35:52;;;;;;;;;;;20.90;77.90;;;;;;5088795;28;19908;-78
2023/08/01 07:38:18;;;;;;;;;;;21.20;78.10;;;;;;5088379;28;20106;-76
2023/08/01 07:40:43;;;;;;;;;;;21.90;77.90;;;;;;5086948;28;19954;-76
2023/08/01 07:43:09;;;;;;;;;;;22.70;77.90;;;;;;5086401;28;19916;-76
2023/08/01 07:45:36;;;;;;;;;;;22.60;76.60;;;;;;5087765;28;19934;-76
2023/08/01 07:48:01;;;;;;;;;;;22.30;76.60;;;;;;5087981;28;19915;-77
2023/08/01 07:50:27;;;;;;;;;;;21.80;76.70;;;;;;5088148;28;19925;-77
2023/08/01 07:52:52;;;;;;;;;;;21.40;77.40;;;;;;5088255;28;19918;-77
2023/08/01 07:55:18;;;;;;;;;;;21.10;77.60;;;;;;5088275;28;20027;-78
2023/08/01 07:57:44;;;;;;;;;;;20.70;78.10;;;;;;5086869;28;19908;-78
2023/08/01 08:00:10;;;;;;;;;;;20.70;78.80;;;;;;5088382;28;19909;-78
2023/08/01 08:02:35;;;;;;;;;;;21.10;79.60;;;;;;5087943;28;19924;-78
2023/08/01 08:05:01;;;;;;;;;;;21.50;78.80;;;;;;5087895;28;19916;-78
2023/08/01 08:07:26;;;;;;;;;;;21.80;78.90;;;;;;5088498;28;19916;-79
2023/08/01 08:09:54;;;;;;;;;;;22.10;78.60;;;;;;5088517;28;19951;-78
2023/08/01 08:12:23;;;;;;;;;;;22.20;78.30;;;;;;5087742;28;19912;-79
2023/08/01 08:14:48;;;;;;;;;;;22.00;78.50;;;;;;5087734;28;19923;-79
2023/08/01 08:17:15;;;;;;;;;;;21.70;78.20;;;;;;5088176;28;19912;-79
2023/08/01 08:19:40;;;;;;;;;;;22.00;79.20;;;;;;5088666;28;20376;-71
2023/08/01 08:22:06;;;;;;;;;;;22.30;79.10;;;;;;5088372;28;19919;-78
2023/08/01 08:24:32;;;;;;;;;;;22.50;78.80;;;;;;5068421;28;20010;-78
2023/08/01 08:26:57;;;;;;;;;;;22.50;78.50;;;;;;5087783;28;19916;-78
2023/08/01 08:29:23;;;;;;;;;;;23.00;79.60;;;;;;5089219;28;20364;-76
2023/08/01 08:31:49;;;;;;;;;;;24.10;80.00;;;;;;5089104;28;19958;-78
2023/08/01 08:34:14;;;;;;;;;;;25.30;79.40;;;;;;5087312;28;20022;-76
2023/08/01 08:36:40;;;;;;;;;;;26.20;78.90;;;;;;5087311;28;19920;-75
2023/08/01 08:39:08;;;;;;;;;;;27.30;79.20;;;;;;5087725;28;20303;-76
2023/08/01 08:41:37;;;;;;;;;;;27.80;77.90;;;;;;5088100;28;19908;-76
2023/08/01 08:44:06;;;;;;;;;;;27.30;77.10;;;;;;5086384;28;19962;-76
2023/08/01 08:46:32;;;;;;;;;;;26.90;77.70;;;;;;5085293;28;19947;-76
2023/08/01 08:49:00;;;;;;;;;;;27.40;79.30;;;;;;5087369;28;20384;-77
2023/08/01 08:51:27;;;;;;;;;;;28.40;79.60;;;;;;5088357;28;19934;-76
2023/08/01 08:53:54;;;;;;;;;;;28.50;78.50;;;;;;5087937;28;19940;-77
2023/08/01 08:56:20;;;;;;;;;;;27.80;77.70;;;;;;5087688;28;19912;-77
2023/08/01 08:58:46;;;;;;;;;;;27.50;78.80;;;;;;5076121;28;20280;-76
2023/08/01 09:01:12;;;;;;;;;;;27.50;80.10;;;;;;5084522;28;19955;-77
2023/08/01 09:03:38;;;;;;;;;;;28.10;80.00;;;;;;5089529;28;19967;-76
2023/08/01 09:06:06;;;;;;;;;;;28.00;79.00;;;;;;5087704;28;19913;-76
2023/08/01 09:08:32;;;;;;;;;;;27.40;78.60;;;;;;5089065;28;19919;-77
2023/08/01 09:10:58;;;;;;;;;;;26.60;78.60;;;;;;5089129;28;19912;-76
2023/08/01 09:13:23;;;;;;;;;;;26.80;81.30;;;;;;5089272;28;19965;-77
2023/08/01 09:15:50;;;;;;;;;;;27.50;81.20;;;;;;5088938;28;19912;-77
2023/08/01 09:18:15;;;;;;;;;;;27.40;79.90;;;;;;5089621;28;20411;-77
2023/08/01 09:20:45;;;;;;;;;;;27.60;80.60;;;;;;5088190;28;20007;-78
2023/08/01 09:23:11;;;;;;;;;;;28.20;80.50;;;;;;5088974;28;20045;-77
2023/08/01 09:25:37;;;;;;;;;;;28.90;81.00;;;;;;5091723;28;20103;-76
2023/08/01 09:28:03;;;;;;;;;;;29.80;80.60;;;;;;5092328;28;19915;-73
2023/08/01 09:30:29;;;;;;;;;;;30.20;79.80;;;;;;5092177;28;19912;-74
2023/08/01 09:32:55;;;;;;;;;;;29.90;79.00;;;;;;5091673;28;19912;-76
2023/08/01 09:35:21;;;;;;;;;;;30.20;80.40;;;;;;5091952;28;19908;-76
2023/08/01 09:37:47;;;;;;;;;;;30.80;81.10;;;;;;5092179;28;20411;-74
2023/08/01 09:40:13;;;;;;;;;;;31.60;81.40;;;;;;5091830;28;20286;-74
2023/08/01 09:42:39;;;;;;;;;;;31.90;80.70;;;;;;5091545;28;19958;-75
2023/08/01 09:45:23;;;;;;;;;;;32.20;80.80;;;;;;5091493;28;20367;-73
2023/08/01 09:47:49;;;;;;;;;;;32.30;80.40;;;;;;5090193;28;20003;-74
2023/08/01 09:50:19;;;;;;;;;;;31.70;79.40;;;;;;5092147;28;20006;-74
2023/08/01 09:52:52;;;;;;;;;;;30.60;78.50;;;;;;5091627;28;20386;-74
2023/08/01 09:55:19;;;;;;;;;;;29.60;79.40;;;;;;5091597;28;19970;-73
2023/08/01 09:57:48;;;;;;;;;;;29.20;80.10;;;;;;5085805;28;20209;-74
2023/08/01 10:00:14;;;;;;;;;;;28.80;80.00;;;;;;5091705;28;20256;-83
2023/08/01 10:02:42;;;;;;;;;;;29.20;81.90;;;;;;5093114;28;19920;-81
2023/08/01 10:05:08;;;;;;;;;;;30.10;82.80;;;;;;5092113;28;19966;-79
2023/08/01 10:07:34;;;;;;;;;;;31.50;83.00;;;;;;5091345;28;19909;-80
2023/08/01 10:10:01;;;;;;;;;;;31.90;80.80;;;;;;5092519;28;19911;-78
2023/08/01 10:12:27;;;;;;;;;;;31.40;79.90;;;;;;5092752;28;19908;-83
2023/08/01 10:14:53;;;;;;;;;;;31.40;81.00;;;;;;5091822;28;19912;-77
2023/08/01 10:17:20;;;;;;;;;;;32.00;81.40;;;;;;5093232;28;19912;-77
2023/08/01 10:19:46;;;;;;;;;;;32.50;81.00;;;;;;5092399;28;19940;-79
2023/08/01 10:22:11;;;;;;;;;;;33.20;81.00;;;;;;5092027;28;19912;-81
2023/08/01 10:24:37;;;;;;;;;;;33.80;80.80;;;;;;5092896;28;19919;-79
2023/08/01 10:27:18;;;;;;;;;;;34.20;80.50;;;;;;5091545;28;20632;-80
2023/08/01 10:29:44;;;;;;;;;;;34.90;80.80;;;;;;5092604;28;19908;-79
2023/08/01 10:32:10;;;;;;;;;;;34.30;79.30;;;;;;5095649;28;19946;-76
2023/08/01 10:34:36;;;;;;;;;;;33.20;78.50;;;;;;5091704;28;20091;-79
2023/08/01 10:37:01;;;;;;;;;;;32.00;78.50;;;;;;5090415;28;19916;-76
2023/08/01 10:39:27;;;;;;;;;;;31.00;79.10;;;;;;5093725;28;19915;-83
2023/08/01 10:41:57;;;;;;;;;;;30.20;79.80;;;;;;5090714;28;19912;-80
2023/08/01 10:44:23;;;;;;;;;;;29.70;80.80;;;;;;5091068;28;20592;-76
2023/08/01 10:46:56;;;;;;;;;;;29.80;81.40;;;;;;5091626;28;19952;-81
2023/08/01 10:49:35;;;;;;;;;;;30.00;81.90;;;;;;5092946;28;19915;-73
2023/08/01 10:52:01;;;;;;;;;;;30.00;80.80;;;;;;5091952;28;20287;-79
2023/08/01 10:54:27;;;;;;;;;;;29.90;80.90;;;;;;5075003;28;19912;-80
2023/08/01 10:56:55;;;;;;;;;;;29.90;80.80;;;;;;5093433;28;19908;-81
2023/08/01 10:59:21;;;;;;;;;;;30.60;82.00;;;;;;5089208;28;19908;-77
2023/08/01 11:01:48;;;;;;;;;;;31.20;81.30;;;;;;5089099;28;19920;-76
2023/08/01 11:04:23;;;;;;;;;;;31.40;80.80;;;;;;5076310;28;19943;-81
2023/08/01 11:06:50;;;;;;;;;;;31.30;80.30;;;;;;5071179;28;19919;-80
2023/08/01 11:09:20;;;;;;;;;;;31.00;80.50;;;;;;5071348;28;19908;-81
2023/08/01 11:11:48;;;;;;;;;;;31.30;81.60;;;;;;5084746;28;19935;-80
2023/08/01 11:14:14;;;;;;;;;;;32.00;81.80;;;;;;5090933;28;20361;-81
2023/08/01 11:16:39;;;;;;;;;;;32.40;81.20;;;;;;5092461;28;19956;-79
2023/08/01 11:19:05;;;;;;;;;;;32.70;81.30;;;;;;5090973;28;20592;-82
2023/08/01 11:21:31;;;;;;;;;;;33.20;81.00;;;;;;5090839;28;19912;-80
2023/08/01 11:23:57;;;;;;;;;;;33.70;81.10;;;;;;5091991;28;19923;-78
2023/08/01 11:26:23;;;;;;;;;;;34.10;80.80;;;;;;5091532;28;19983;-81
2023/08/01 11:28:51;;;;;;;;;;;34.20;80.30;;;;;;5071890;28;19916;-81
2023/08/01 11:31:17;;;;;;;;;;;34.30;80.50;;;;;;5062034;28;19999;-80
2023/08/01 11:33:54;;;;;;;;;;;34.20;80.80;;;;;;5092019;28;19960;-81
2023/08/01 11:36:22;;;;;;;;;;;34.00;80.20;;;;;;5092676;28;20287;-82
2023/08/01 11:38:48;;;;;;;;;;;33.20;79.20;;;;;;5090205;28;20275;-80
2023/08/01 11:41:14;;;;;;;;;;;32.20;78.80;;;;;;5076235;28;19919;-79
2023/08/01 11:43:43;;;;;;;;;;;31.20;79.20;;;;;;5089773;28;20427;-80
2023/08/01 11:46:09;;;;;;;;;;;30.70;80.50;;;;;;5071868;28;20267;-79
2023/08/01 11:48:35;;;;;;;;;;;30.70;81.10;;;;;;5069692;28;20004;-80
2023/08/01 11:51:01;;;;;;;;;;;30.70;80.70;;;;;;5089428;28;19916;-81
2023/08/01 11:53:27;;;;;;;;;;;30.30;80.00;;;;;;5090676;28;19915;-80
2023/08/01 11:55:53;;;;;;;;;;;29.70;79.60;;;;;;5090566;28;19931;-80
2023/08/01 11:58:32;;;;;;;;;;;29.30;80.20;;;;;;5074004;28;20001;-81
2023/08/01 12:01:16;;;;;;;;;;;29.00;80.50;;;;;;5089293;28;19915;-76
2023/08/01 12:03:52;;;;;;;;;;;29.20;81.60;;;;;;5088697;28;19967;-77
2023/08/01 12:06:18;;;;;;;;;;;30.20;82.20;;;;;;5089569;28;19912;-78
2023/08/01 12:08:44;;;;;;;;;;;30.90;81.60;;;;;;5089388;28;19942;-79
2023/08/01 12:11:27;;;;;;;;;;;31.50;81.30;;;;;;5089660;28;20034;-77
2023/08/01 12:14:02;;;;;;;;;;;32.20;81.50;;;;;;5091892;28;19912;-79
2023/08/01 12:16:28;;;;;;;;;;;32.70;81.00;;;;;;5090473;28;19919;-78
2023/08/01 12:18:53;;;;;;;;;;;32.90;80.60;;;;;;5088923;28;20300;-79
2023/08/01 12:21:19;;;;;;;;;;;33.10;81.00;;;;;;5082932;28;20197;-79
2023/08/01 12:23:44;;;;;;;;;;;33.50;82.00;;;;;;5089680;28;20372;-76
2023/08/01 12:26:10;;;;;;;;;;;34.00;81.40;;;;;;5090251;28;20343;-82
2023/08/01 12:28:36;;;;;;;;;;;34.30;81.50;;;;;;5090884;28;19912;-81
2023/08/01 12:31:03;;;;;;;;;;;34.60;81.30;;;;;;5089585;28;20420;-82
2023/08/01 12:33:29;;;;;;;;;;;34.30;80.10;;;;;;5073026;28;19955;-83
2023/08/01 12:35:54;;;;;;;;;;;33.60;79.70;;;;;;5071637;28;20530;-80
2023/08/01 12:38:20;;;;;;;;;;;32.60;79.60;;;;;;5089423;28;19912;-77
2023/08/01 12:40:46;;;;;;;;;;;31.60;78.90;;;;;;5087427;28;19950;-76
2023/08/01 12:43:12;;;;;;;;;;;30.50;78.80;;;;;;5071532;28;19912;-77
2023/08/01 12:45:38;;;;;;;;;;;29.50;79.10;;;;;;5089478;28;20288;-79
2023/08/01 12:48:03;;;;;;;;;;;28.70;79.60;;;;;;5087335;28;20336;-78
2023/08/01 12:50:29;;;;;;;;;;;28.00;79.70;;;;;;5090121;28;19928;-80
2023/08/01 12:52:54;;;;;;;;;;;27.50;80.60;;;;;;5087767;28;19913;-76
2023/08/01 12:55:20;;;;;;;;;;;27.20;80.90;;;;;;5088015;28;19912;-79
2023/08/01 12:57:46;;;;;;;;;;;27.10;80.30;;;;;;5089607;28;19912;-78
2023/08/01 13:00:11;;;;;;;;;;;26.80;80.00;;;;;;5090556;28;19912;-79
2023/08/01 13:02:37;;;;;;;;;;;26.70;80.00;;;;;;5092365;28;19932;-75
2023/08/01 13:05:04;;;;;;;;;;;26.60;80.00;;;;;;5091844;28;19916;-76
2023/08/01 13:07:32;;;;;;;;;;;26.70;80.00;;;;;;5093218;28;20445;-80
2023/08/01 13:09:58;;;;;;;;;;;26.60;79.60;;;;;;5075721;28;20007;-79
2023/08/01 13:12:24;;;;;;;;;;;26.60;79.60;;;;;;5091453;28;19912;-81
2023/08/01 13:14:49;;;;;;;;;;;26.80;80.00;;;;;;5092618;28;19911;-81
2023/08/01 13:17:15;;;;;;;;;;;27.30;80.40;;;;;;5071747;28;20023;-79
2023/08/01 13:19:40;;;;;;;;;;;27.70;80.20;;;;;;5071614;28;19919;-82
2023/08/01 13:22:06;;;;;;;;;;;27.90;80.10;;;;;;5071879;28;20007;-79
2023/08/01 13:24:31;;;;;;;;;;;28.00;79.90;;;;;;5073656;28;19916;-80
2023/08/01 13:26:57;;;;;;;;;;;27.90;79.60;;;;;;5072419;28;20307;-77
2023/08/01 13:29:23;;;;;;;;;;;27.70;79.70;;;;;;5072476;28;19938;-75
2023/08/01 13:31:48;;;;;;;;;;;27.60;79.90;;;;;;5071333;28;19912;-82
2023/08/01 13:34:14;;;;;;;;;;;27.60;80.00;;;;;;5067597;28;19919;-81
2023/08/01 13:36:40;;;;;;;;;;;27.50;79.60;;;;;;5073871;28;20391;-74
2023/08/01 13:39:05;;;;;;;;;;;27.30;79.00;;;;;;5092248;28;19912;-74
2023/08/01 13:41:31;;;;;;;;;;;27.00;79.00;;;;;;5090678;28;19912;-74
2023/08/01 13:43:57;;;;;;;;;;;26.80;78.90;;;;;;5092335;28;19916;-74
2023/08/01 13:46:23;;;;;;;;;;;26.50;78.60;;;;;;5091761;28;19922;-74
2023/08/01 13:48:48;;;;;;;;;;;26.20;78.50;;;;;;5090572;28;19916;-74
2023/08/01 13:51:14;;;;;;;;;;;25.90;78.30;;;;;;5090689;28;20045;-75
2023/08/01 13:53:43;;;;;;;;;;;25.70;78.40;;;;;;5090612;28;19912;-74
2023/08/01 13:56:09;;;;;;;;;;;25.50;78.90;;;;;;5092921;28;19912;-75
2023/08/01 13:58:35;;;;;;;;;;;25.50;79.20;;;;;;5093061;28;19934;-75
2023/08/01 14:01:04;;;;;;;;;;;25.60;79.60;;;;;;5091677;28;19916;-74
2023/08/01 14:03:33;;;;;;;;;;;25.80;79.60;;;;;;5092005;28;19916;-75
2023/08/01 14:06:05;;;;;;;;;;;25.90;79.40;;;;;;5091981;28;20352;-76
2023/08/01 14:08:30;;;;;;;;;;;26.00;79.00;;;;;;5090049;28;19908;-74
2023/08/01 14:10:56;;;;;;;;;;;26.00;79.00;;;;;;5089799;28;19994;-74